Wetterdaten: Donnerstag, 06.09.2012
Datum Zeit Temperatur Luftfeuchte Luftdruck Regen Wind Richtung Richtung Sonnenschein Taupunkt Windchill
06.09.2012 00:04 9,2 C 68 % 1023,7 hPa 0,0 l/m 0,0 km/h (0 Bft) W-NW 300 0 min 3,6 C 9,2 C
06.09.2012 00:09 9,2 C 68 % 1024,7 hPa 0,0 l/m 0,0 km/h (0 Bft) W-NW 300 0 min 3,6 C 9,2 C
06.09.2012 00:14 9,3 C 68 % 1024,7 hPa 0,0 l/m 0,0 km/h (0 Bft) NW 305 0 min 3,7 C 9,3 C
06.09.2012 00:19 9,4 C 68 % 1024,7 hPa 0,0 l/m 0,0 km/h (0 Bft) NW 305 0 min 3,8 C 9,4 C
06.09.2012 00:24 9,5 C 69 % 1024,7 hPa 0,0 l/m 0,0 km/h (0 Bft) NW 310 0 min 4,1 C 9,5 C
06.09.2012 00:29 9,7 C 69 % 1024,7 hPa 0,0 l/m 0,0 km/h (0 Bft) NW 305 0 min 4,3 C 9,7 C
06.09.2012 00:34 9,9 C 69 % 1024,7 hPa 0,0 l/m 0,0 km/h (0 Bft) NW 305 0 min 4,5 C 9,9 C
06.09.2012 00:39 9,9 C 69 % 1024,7 hPa 0,0 l/m 0,0 km/h (0 Bft) NW 305 0 min 4,5 C 9,9 C
06.09.2012 00:44 10,0 C 69 % 1024,7 hPa 0,0 l/m 0,0 km/h (0 Bft) NW 315 0 min 4,6 C 10,0 C
06.09.2012 00:49 10,1 C 69 % 1024,7 hPa 0,0 l/m 0,0 km/h (0 Bft) NW 310 0 min 4,7 C 10,1 C
06.09.2012 00:54 10,1 C 69 % 1024,7 hPa 0,0 l/m 0,0 km/h (0 Bft) NW 305 0 min 4,7 C 10,1 C
06.09.2012 00:59 10,1 C 69 % 1024,7 hPa 0,0 l/m 0,0 km/h (0 Bft) NW 305 0 min 4,7 C 10,1 C
06.09.2012 01:04 10,2 C 70 % 1024,7 hPa 0,0 l/m 0,0 km/h (0 Bft) W-NW 290 0 min 5,0 C 10,2 C
06.09.2012 01:09 10,2 C 70 % 1024,7 hPa 0,0 l/m 0,0 km/h (0 Bft) W-NW 295 0 min 5,0 C 10,2 C
06.09.2012 01:14 10,3 C 70 % 1024,7 hPa 0,0 l/m 0,0 km/h (0 Bft) W-NW 290 0 min 5,1 C 10,3 C
06.09.2012 01:19 10,3 C 70 % 1024,7 hPa 0,0 l/m 0,0 km/h (0 Bft) W-NW 285 0 min 5,1 C 10,3 C
06.09.2012 01:24 10,3 C 70 % 1024,7 hPa 0,0 l/m 0,0 km/h (0 Bft) W-NW 285 0 min 5,1 C 10,3 C
06.09.2012 01:29 10,3 C 71 % 1024,7 hPa 0,0 l/m 0,0 km/h (0 Bft) W-NW 300 0 min 5,3 C 10,3 C
06.09.2012 01:34 10,3 C 71 % 1024,7 hPa 0,0 l/m 0,4 km/h (0 Bft) W 280 0 min 5,3 C 10,3 C
06.09.2012 01:39 10,2 C 70 % 1024,7 hPa 0,0 l/m 0,0 km/h (0 Bft) W 260 0 min 5,0 C 10,2 C
06.09.2012 01:44 10,2 C 70 % 1024,7 hPa 0,0 l/m 0,0 km/h (0 Bft) W-SW 255 0 min 5,0 C 10,2 C
06.09.2012 01:49 10,1 C 71 % 1024,7 hPa 0,0 l/m 0,0 km/h (0 Bft) W 260 0 min 5,1 C 10,1 C
06.09.2012 01:54 10,0 C 71 % 1024,7 hPa 0,0 l/m 0,0 km/h (0 Bft) W 260 0 min 5,0 C 10,0 C
06.09.2012 01:59 9,9 C 72 % 1024,7 hPa 0,0 l/m 0,0 km/h (0 Bft) W 260 0 min 5,1 C 9,9 C
06.09.2012 02:04 9,8 C 71 % 1024,7 hPa 0,0 l/m 0,0 km/h (0 Bft) W-SW 255 0 min 4,8 C 9,8 C
06.09.2012 02:09 9,7 C 71 % 1024,7 hPa 0,0 l/m 0,0 km/h (0 Bft) W-SW 255 0 min 4,7 C 9,7 C
06.09.2012 02:14 9,7 C 71 % 1024,7 hPa 0,0 l/m 0,0 km/h (0 Bft) W 260 0 min 4,7 C 9,7 C
06.09.2012 02:19 9,7 C 71 % 1024,7 hPa 0,0 l/m 0,0 km/h (0 Bft) W 260 0 min 4,7 C 9,7 C
06.09.2012 02:24 9,6 C 71 % 1024,7 hPa 0,0 l/m 0,0 km/h (0 Bft) W 260 0 min 4,6 C 9,6 C
06.09.2012 02:29 9,5 C 72 % 1024,7 hPa 0,0 l/m 0,0 km/h (0 Bft) W 260 0 min 4,7 C 9,5 C
06.09.2012 02:34 9,5 C 72 % 1024,7 hPa 0,0 l/m 0,0 km/h (0 Bft) W 265 0 min 4,7 C 9,5 C
06.09.2012 02:39 9,5 C 72 % 1024,7 hPa 0,0 l/m 0,0 km/h (0 Bft) W 265 0 min 4,7 C 9,5 C
06.09.2012 02:44 9,6 C 72 % 1024,7 hPa 0,0 l/m 0,0 km/h (0 Bft) W 265 0 min 4,8 C 9,6 C
06.09.2012 02:49 9,7 C 72 % 1024,7 hPa 0,0 l/m 0,0 km/h (0 Bft) W 265 0 min 4,9 C 9,7 C
06.09.2012 02:54 9,8 C 72 % 1024,7 hPa 0,0 l/m 0,0 km/h (0 Bft) W 265 0 min 5,0 C 9,8 C
06.09.2012 02:59 9,9 C 73 % 1024,7 hPa 0,0 l/m 0,0 km/h (0 Bft) W 270 0 min 5,3 C 9,9 C
06.09.2012 03:04 9,9 C 74 % 1025,7 hPa 0,0 l/m 0,0 km/h (0 Bft) W 270 0 min 5,5 C 9,9 C
06.09.2012 03:09 9,9 C 73 % 1025,7 hPa 0,0 l/m 0,0 km/h (0 Bft) W 270 0 min 5,3 C 9,9 C
06.09.2012 03:14 10,0 C 72 % 1025,7 hPa 0,0 l/m 0,0 km/h (0 Bft) W 275 0 min 5,2 C 10,0 C
06.09.2012 03:19 10,0 C 73 % 1025,7 hPa 0,0 l/m 0,0 km/h (0 Bft) W 270 0 min 5,4 C 10,0 C
06.09.2012 03:24 10,1 C 73 % 1025,7 hPa 0,0 l/m 0,6 km/h (0 Bft) W 270 0 min 5,5 C 10,1 C
06.09.2012 03:29 10,1 C 73 % 1025,7 hPa 0,0 l/m 0,0 km/h (0 Bft) W-SW 250 0 min 5,5 C 10,1 C
06.09.2012 03:34 10,1 C 73 % 1025,7 hPa 0,0 l/m 0,1 km/h (0 Bft) W 275 0 min 5,5 C 10,1 C
06.09.2012 03:39 10,0 C 74 % 1025,7 hPa 0,0 l/m 0,0 km/h (0 Bft) W 265 0 min 5,6 C 10,0 C
06.09.2012 03:44 10,0 C 74 % 1025,7 hPa 0,0 l/m 0,0 km/h (0 Bft) W 265 0 min 5,6 C 10,0 C
06.09.2012 03:49 10,1 C 74 % 1025,7 hPa 0,0 l/m 0,4 km/h (0 Bft) W-SW 245 0 min 5,7 C 10,1 C
06.09.2012 03:54 10,2 C 74 % 1025,7 hPa 0,0 l/m 0,0 km/h (0 Bft) SW 235 0 min 5,8 C 10,2 C
06.09.2012 03:59 10,2 C 74 % 1025,7 hPa 0,0 l/m 0,0 km/h (0 Bft) SW 235 0 min 5,8 C 10,2 C
06.09.2012 04:04 10,2 C 74 % 1025,7 hPa 0,0 l/m 0,0 km/h (0 Bft) SW 230 0 min 5,8 C 10,2 C
06.09.2012 04:08 10,2 C 74 % 1025,7 hPa 0,0 l/m 0,0 km/h (0 Bft) SW 230 0 min 5,8 C 10,2 C
06.09.2012 04:13 10,2 C 73 % 1025,7 hPa 0,0 l/m 0,0 km/h (0 Bft) SW 230 0 min 5,6 C 10,2 C
06.09.2012 04:18 10,2 C 74 % 1025,7 hPa 0,0 l/m 0,0 km/h (0 Bft) SW 230 0 min 5,8 C 10,2 C
06.09.2012 04:24 10,2 C 74 % 1025,7 hPa 0,0 l/m 0,0 km/h (0 Bft) SW 230 0 min 5,8 C 10,2 C
06.09.2012 04:29 10,2 C 74 % 1025,7 hPa 0,0 l/m 0,0 km/h (0 Bft) SW 230 0 min 5,8 C 10,2 C
06.09.2012 04:34 10,2 C 74 % 1025,7 hPa 0,0 l/m 0,0 km/h (0 Bft) SW 230 0 min 5,8 C 10,2 C
06.09.2012 04:39 10,3 C 74 % 1025,7 hPa 0,0 l/m 0,0 km/h (0 Bft) SW 230 0 min 5,9 C 10,3 C
06.09.2012 04:44 10,2 C 74 % 1025,7 hPa 0,0 l/m 0,4 km/h (0 Bft) W-SW 240 0 min 5,8 C 10,2 C
06.09.2012 04:49 10,2 C 74 % 1025,7 hPa 0,0 l/m 0,0 km/h (0 Bft) SW 230 0 min 5,8 C 10,2 C
06.09.2012 04:54 10,3 C 74 % 1025,7 hPa 0,0 l/m 0,0 km/h (0 Bft) SW 230 0 min 5,9 C 10,3 C
06.09.2012 04:59 10,3 C 74 % 1025,7 hPa 0,0 l/m 0,0 km/h (0 Bft) SW 230 0 min 5,9 C 10,3 C
06.09.2012 05:04 10,3 C 74 % 1025,7 hPa 0,0 l/m 0,3 km/h (0 Bft) W-SW 240 0 min 5,9 C 10,3 C
06.09.2012 05:09 10,4 C 74 % 1025,7 hPa 0,0 l/m 0,0 km/h (0 Bft) W-SW 240 0 min 6,0 C 10,4 C
06.09.2012 05:14 10,4 C 74 % 1025,7 hPa 0,0 l/m 0,0 km/h (0 Bft) W-SW 240 0 min 6,0 C 10,4 C
06.09.2012 05:19 10,4 C 74 % 1025,7 hPa 0,0 l/m 0,0 km/h (0 Bft) W-SW 240 0 min 6,0 C 10,4 C
06.09.2012 05:24 10,5 C 74 % 1025,7 hPa 0,0 l/m 0,0 km/h (0 Bft) W-SW 240 0 min 6,1 C 10,5 C
06.09.2012 05:29 10,4 C 74 % 1025,7 hPa 0,0 l/m 0,0 km/h (0 Bft) SW 235 0 min 6,0 C 10,4 C
06.09.2012 05:34 10,5 C 74 % 1025,7 hPa 0,0 l/m 0,0 km/h (0 Bft) SW 235 0 min 6,1 C 10,5 C
06.09.2012 05:39 10,5 C 75 % 1025,7 hPa 0,0 l/m 0,6 km/h (0 Bft) SW 230 0 min 6,3 C 10,5 C
06.09.2012 05:44 10,6 C 75 % 1025,7 hPa 0,0 l/m 0,0 km/h (0 Bft) SW 230 0 min 6,4 C 10,6 C
06.09.2012 05:49 10,6 C 74 % 1025,7 hPa 0,0 l/m 0,0 km/h (0 Bft) SW 230 0 min 6,2 C 10,6 C
06.09.2012 05:54 10,6 C 74 % 1025,7 hPa 0,0 l/m 0,0 km/h (0 Bft) SW 230 0 min 6,2 C 10,6 C
06.09.2012 05:59 10,6 C 74 % 1025,7 hPa 0,0 l/m 0,0 km/h (0 Bft) SW 230 0 min 6,2 C 10,6 C
06.09.2012 06:04 10,6 C 74 % 1025,7 hPa 0,0 l/m 0,8 km/h (0 Bft) SW 230 0 min 6,2 C 10,6 C
06.09.2012 06:09 10,6 C 75 % 1025,7 hPa 0,0 l/m 0,1 km/h (0 Bft) SW 230 0 min 6,4 C 10,6 C
06.09.2012 06:14 10,6 C 75 % 1025,7 hPa 0,0 l/m 0,0 km/h (0 Bft) SW 230 0 min 6,4 C 10,6 C
06.09.2012 06:19 10,6 C 75 % 1025,7 hPa 0,0 l/m 0,0 km/h (0 Bft) SW 230 0 min 6,4 C 10,6 C
06.09.2012 06:24 10,6 C 75 % 1025,7 hPa 0,0 l/m 0,0 km/h (0 Bft) SW 230 0 min 6,4 C 10,6 C
06.09.2012 06:29 10,6 C 75 % 1025,7 hPa 0,0 l/m 0,0 km/h (0 Bft) SW 230 0 min 6,4 C 10,6 C
06.09.2012 06:34 10,6 C 75 % 1025,7 hPa 0,0 l/m 0,0 km/h (0 Bft) SW 230 0 min 6,4 C 10,6 C
06.09.2012 06:39 10,6 C 75 % 1025,7 hPa 0,0 l/m 0,0 km/h (0 Bft) SW 230 0 min 6,4 C 10,6 C
06.09.2012 06:44 10,6 C 75 % 1025,7 hPa 0,0 l/m 0,0 km/h (0 Bft) W 270 0 min 6,4 C 10,6 C
06.09.2012 06:49 10,7 C 76 % 1025,7 hPa 0,0 l/m 0,0 km/h (0 Bft) W 270 0 min 6,6 C 10,7 C
06.09.2012 06:54 10,7 C 75 % 1025,7 hPa 0,0 l/m 0,0 km/h (0 Bft) W 265 0 min 6,5 C 10,7 C
06.09.2012 06:59 10,7 C 75 % 1025,7 hPa 0,0 l/m 0,0 km/h (0 Bft) W 265 0 min 6,5 C 10,7 C
06.09.2012 07:04 10,7 C 76 % 1025,7 hPa 0,0 l/m 0,0 km/h (0 Bft) W 260 0 min 6,6 C 10,7 C
06.09.2012 07:09 10,8 C 75 % 1025,7 hPa 0,0 l/m 0,0 km/h (0 Bft) W 275 0 min 6,5 C 10,8 C
06.09.2012 07:14 10,8 C 75 % 1025,7 hPa 0,0 l/m 0,0 km/h (0 Bft) W 275 0 min 6,5 C 10,8 C
06.09.2012 07:19 10,8 C 75 % 1025,7 hPa 0,0 l/m 0,0 km/h (0 Bft) W 275 0 min 6,5 C 10,8 C
06.09.2012 07:24 10,9 C 75 % 1025,7 hPa 0,0 l/m 0,0 km/h (0 Bft) W 275 0 min 6,6 C 10,9 C
06.09.2012 07:29 11,1 C 75 % 1025,7 hPa 0,0 l/m 0,0 km/h (0 Bft) W 275 0 min 6,8 C 11,1 C
06.09.2012 07:34 11,6 C 76 % 1025,7 hPa 0,0 l/m 0,0 km/h (0 Bft) W 275 0 min 7,5 C 11,6 C
06.09.2012 07:39 11,7 C 75 % 1025,7 hPa 0,0 l/m 0,0 km/h (0 Bft) W 275 0 min 7,4 C 11,7 C
06.09.2012 07:44 11,6 C 75 % 1025,7 hPa 0,0 l/m 0,0 km/h (0 Bft) W 280 0 min 7,3 C 11,6 C
06.09.2012 07:49 11,7 C 74 % 1025,7 hPa 0,0 l/m 0,0 km/h (0 Bft) W 280 0 min 7,2 C 11,7 C
06.09.2012 07:54 11,7 C 75 % 1025,7 hPa 0,0 l/m 0,6 km/h (0 Bft) W 270 0 min 7,4 C 11,7 C
06.09.2012 07:59 11,7 C 75 % 1025,7 hPa 0,0 l/m 0,0 km/h (0 Bft) W-SW 240 0 min 7,4 C 11,7 C
06.09.2012 08:04 11,9 C 75 % 1025,7 hPa 0,0 l/m 0,0 km/h (0 Bft) SW 235 0 min 7,6 C 11,9 C
06.09.2012 08:09 12,0 C 74 % 1025,7 hPa 0,0 l/m 0,0 km/h (0 Bft) SW 235 0 min 7,5 C 12,0 C
06.09.2012 08:14 12,3 C 74 % 1025,7 hPa 0,0 l/m 0,0 km/h (0 Bft) SW 235 0 min 7,8 C 12,3 C
06.09.2012 08:19 12,4 C 74 % 1026,7 hPa 0,0 l/m 0,3 km/h (0 Bft) W-SW 240 0 min 7,9 C 12,4 C
06.09.2012 08:24 12,5 C 74 % 1026,7 hPa 0,0 l/m 0,6 km/h (0 Bft) W-SW 240 0 min 8,0 C 12,5 C
06.09.2012 08:29 12,4 C 74 % 1026,7 hPa 0,0 l/m 0,0 km/h (0 Bft) W-SW 240 0 min 7,9 C 12,4 C
06.09.2012 08:34 12,5 C 74 % 1026,7 hPa 0,0 l/m 0,1 km/h (0 Bft) W-SW 245 0 min 8,0 C 12,5 C
06.09.2012 08:39 12,5 C 74 % 1026,7 hPa 0,0 l/m 0,0 km/h (0 Bft) W-SW 240 0 min 8,0 C 12,5 C
06.09.2012 08:44 12,6 C 74 % 1026,7 hPa 0,0 l/m 0,0 km/h (0 Bft) W-SW 240 0 min 8,1 C 12,6 C
06.09.2012 08:49 12,8 C 74 % 1026,7 hPa 0,0 l/m 0,7 km/h (0 Bft) W-SW 250 0 min 8,3 C 12,8 C
06.09.2012 08:54 13,1 C 72 % 1026,7 hPa 0,0 l/m 0,1 km/h (0 Bft) W-SW 250 0 min 8,2 C 13,1 C
06.09.2012 08:59 13,4 C 72 % 1026,7 hPa 0,0 l/m 0,0 km/h (0 Bft) W 260 0 min 8,5 C 13,4 C
06.09.2012 09:04 13,5 C 72 % 1026,7 hPa 0,0 l/m 0,6 km/h (0 Bft) W 265 0 min 8,6 C 13,5 C
06.09.2012 09:09 13,9 C 72 % 1026,7 hPa 0,0 l/m 0,0 km/h (0 Bft) W-SW 240 0 min 8,9 C 13,9 C
06.09.2012 09:14 14,2 C 70 % 1026,7 hPa 0,0 l/m 0,0 km/h (0 Bft) W-SW 245 0 min 8,8 C 14,2 C
06.09.2012 09:19 14,5 C 69 % 1026,7 hPa 0,0 l/m 0,3 km/h (0 Bft) W-SW 250 0 min 8,9 C 14,5 C
06.09.2012 09:24 14,5 C 69 % 1026,7 hPa 0,0 l/m 0,0 km/h (0 Bft) O 100 0 min 8,9 C 14,5 C
06.09.2012 09:29 15,0 C 67 % 1026,7 hPa 0,0 l/m 0,0 km/h (0 Bft) O-SO 120 0 min 8,9 C 15,0 C
06.09.2012 09:34 15,4 C 67 % 1026,7 hPa 0,0 l/m 0,0 km/h (0 Bft) W 260 0 min 9,3 C 15,4 C
06.09.2012 09:39 15,8 C 67 % 1026,7 hPa 0,0 l/m 0,0 km/h (0 Bft) W-SW 245 0 min 9,7 C 15,8 C
06.09.2012 09:44 16,2 C 65 % 1026,7 hPa 0,0 l/m 0,0 km/h (0 Bft) W-SW 245 0 min 9,6 C 16,2 C
06.09.2012 09:49 16,4 C 64 % 1026,7 hPa 0,0 l/m 0,0 km/h (0 Bft) W-SW 250 0 min 9,6 C 16,4 C
06.09.2012 09:54 16,5 C 64 % 1026,7 hPa 0,0 l/m 0,0 km/h (0 Bft) W-SW 240 0 min 9,7 C 16,5 C
06.09.2012 09:59 16,4 C 61 % 1026,7 hPa 0,0 l/m 0,0 km/h (0 Bft) SW 235 0 min 8,9 C 16,4 C
06.09.2012 10:04 16,2 C 59 % 1026,7 hPa 0,0 l/m 0,3 km/h (0 Bft) O-NO 65 0 min 8,2 C 16,2 C
06.09.2012 10:09 16,2 C 58 % 1026,7 hPa 0,0 l/m 0,0 km/h (0 Bft) O-SO 105 0 min 7,9 C 16,2 C
06.09.2012 10:14 16,2 C 57 % 1026,7 hPa 0,0 l/m 1,6 km/h (1 Bft) O 90 0 min 7,7 C 16,2 C
06.09.2012 10:19 16,2 C 58 % 1027,7 hPa 0,0 l/m 0,1 km/h (0 Bft) W 275 0 min 7,9 C 16,2 C
06.09.2012 10:24 16,2 C 58 % 1027,7 hPa 0,0 l/m 0,0 km/h (0 Bft) W 270 0 min 7,9 C 16,2 C
06.09.2012 10:28 16,2 C 58 % 1027,7 hPa 0,0 l/m 0,0 km/h (0 Bft) S-SW 195 0 min 7,9 C 16,2 C
06.09.2012 10:33 16,0 C 57 % 1027,7 hPa 0,0 l/m 0,0 km/h (0 Bft) S-SW 210 0 min 7,5 C 16,0 C
06.09.2012 10:38 16,1 C 57 % 1027,7 hPa 0,0 l/m 0,0 km/h (0 Bft) O-SO 105 0 min 7,6 C 16,1 C
06.09.2012 10:43 16,2 C 58 % 1027,7 hPa 0,0 l/m 0,0 km/h (0 Bft) O-SO 115 0 min 7,9 C 16,2 C
06.09.2012 10:49 16,1 C 56 % 1027,7 hPa 0,0 l/m 0,0 km/h (0 Bft) W-NW 295 0 min 7,3 C 16,1 C
06.09.2012 10:54 16,2 C 56 % 1027,7 hPa 0,0 l/m 0,0 km/h (0 Bft) W-NW 295 0 min 7,4 C 16,2 C
06.09.2012 10:59 16,5 C 57 % 1027,7 hPa 0,0 l/m 0,0 km/h (0 Bft) W-NW 285 0 min 8,0 C 16,5 C
06.09.2012 11:04 16,7 C 57 % 1027,7 hPa 0,0 l/m 0,0 km/h (0 Bft) W-NW 290 0 min 8,1 C 16,7 C
06.09.2012 11:09 16,9 C 56 % 1027,7 hPa 0,0 l/m 0,0 km/h (0 Bft) W-NW 295 0 min 8,1 C 16,9 C
06.09.2012 11:14 17,0 C 55 % 1027,7 hPa 0,0 l/m 0,0 km/h (0 Bft) O 85 0 min 7,9 C 17,0 C
06.09.2012 11:19 17,4 C 55 % 1027,7 hPa 0,0 l/m 0,1 km/h (0 Bft) O 85 0 min 8,3 C 17,4 C
06.09.2012 11:24 17,6 C 55 % 1027,7 hPa 0,0 l/m 0,0 km/h (0 Bft) O 85 0 min 8,5 C 17,6 C
06.09.2012 11:29 17,5 C 54 % 1027,7 hPa 0,0 l/m 0,0 km/h (0 Bft) O 80 0 min 8,1 C 17,5 C
06.09.2012 11:34 17,3 C 55 % 1027,7 hPa 0,0 l/m 0,0 km/h (0 Bft) O 80 0 min 8,2 C 17,3 C
06.09.2012 11:39 17,4 C 55 % 1027,7 hPa 0,0 l/m 0,0 km/h (0 Bft) O 80 0 min 8,3 C 17,4 C
06.09.2012 11:44 17,3 C 53 % 1027,7 hPa 0,0 l/m 9,2 km/h (2 Bft) N-NW 330 0 min 7,6 C 16,0 C
06.09.2012 11:49 17,3 C 52 % 1027,7 hPa 0,0 l/m 0,0 km/h (0 Bft) W-NW 290 0 min 7,3 C 17,3 C
06.09.2012 11:54 17,3 C 52 % 1027,7 hPa 0,0 l/m 1,0 km/h (0 Bft) W 280 0 min 7,3 C 17,3 C
06.09.2012 11:59 18,0 C 52 % 1027,7 hPa 0,0 l/m 0,0 km/h (0 Bft) W 265 0 min 8,0 C 18,0 C
06.09.2012 12:04 18,2 C 52 % 1027,7 hPa 0,0 l/m 0,0 km/h (0 Bft) O-NO 75 0 min 8,2 C 18,2 C
06.09.2012 12:09 18,4 C 51 % 1027,7 hPa 0,0 l/m 0,0 km/h (0 Bft) N-NW 335 0 min 8,1 C 18,4 C
06.09.2012 12:14 18,4 C 51 % 1027,7 hPa 0,0 l/m 0,0 km/h (0 Bft) W-NW 285 0 min 8,1 C 18,4 C
06.09.2012 12:19 18,5 C 49 % 1027,7 hPa 0,0 l/m 0,0 km/h (0 Bft) W 280 0 min 7,6 C 18,5 C
06.09.2012 12:24 18,3 C 48 % 1027,7 hPa 0,0 l/m 0,1 km/h (0 Bft) N 350 0 min 7,1 C 18,3 C
06.09.2012 12:29 18,2 C 49 % 1027,7 hPa 0,0 l/m 0,1 km/h (0 Bft) O 80 0 min 7,3 C 18,2 C
06.09.2012 12:34 18,6 C 50 % 1027,7 hPa 0,0 l/m 0,0 km/h (0 Bft) O-SO 120 0 min 8,0 C 18,6 C
06.09.2012 12:39 18,6 C 49 % 1027,7 hPa 0,0 l/m 0,0 km/h (0 Bft) SO 125 0 min 7,7 C 18,6 C
06.09.2012 12:44 19,0 C 50 % 1026,7 hPa 0,0 l/m 0,0 km/h (0 Bft) O 90 0 min 8,3 C 19,0 C
06.09.2012 12:49 19,5 C 48 % 1026,7 hPa 0,0 l/m 7,0 km/h (2 Bft) SO 140 0 min 8,2 C 19,2 C
06.09.2012 12:54 19,7 C 45 % 1026,7 hPa 0,0 l/m 10,2 km/h (2 Bft) S-SO 160 0 min 7,4 C 18,2 C
06.09.2012 12:59 19,0 C 44 % 1026,7 hPa 0,0 l/m 6,7 km/h (2 Bft) W-NW 285 0 min 6,5 C 18,9 C
06.09.2012 13:04 18,8 C 45 % 1026,7 hPa 0,0 l/m 9,6 km/h (2 Bft) NW 320 0 min 6,6 C 17,5 C
06.09.2012 13:09 19,1 C 47 % 1026,7 hPa 0,0 l/m 1,0 km/h (0 Bft) S 185 0 min 7,5 C 19,1 C
06.09.2012 13:14 19,3 C 47 % 1026,7 hPa 0,0 l/m 6,6 km/h (2 Bft) SW 220 0 min 7,7 C 19,2 C
06.09.2012 13:19 19,7 C 47 % 1026,7 hPa 0,0 l/m 10,1 km/h (2 Bft) W 275 0 min 8,1 C 18,3 C
06.09.2012 13:24 19,4 C 44 % 1026,7 hPa 0,0 l/m 6,3 km/h (2 Bft) W-NW 285 0 min 6,8 C 19,4 C
06.09.2012 13:29 19,1 C 43 % 1026,7 hPa 0,0 l/m 14,5 km/h (3 Bft) W-NW 295 0 min 6,2 C 16,3 C
06.09.2012 13:34 19,0 C 44 % 1026,7 hPa 0,0 l/m 5,6 km/h (1 Bft) W-SW 255 0 min 6,5 C 19,0 C
06.09.2012 13:39 19,1 C 44 % 1026,7 hPa 0,0 l/m 0,4 km/h (0 Bft) SW 215 0 min 6,6 C 19,1 C
06.09.2012 13:44 19,1 C 45 % 1026,7 hPa 0,0 l/m 0,4 km/h (0 Bft) SW 225 0 min 6,9 C 19,1 C
06.09.2012 13:49 19,0 C 44 % 1026,7 hPa 0,0 l/m 2,3 km/h (1 Bft) S-SW 205 0 min 6,5 C 19,0 C
06.09.2012 13:54 20,3 C 44 % 1026,7 hPa 0,0 l/m 19,1 km/h (3 Bft) S-SO 150 0 min 7,6 C 16,8 C
06.09.2012 13:59 21,1 C 44 % 1026,7 hPa 0,0 l/m 0,6 km/h (0 Bft) NO 45 0 min 8,4 C 21,1 C
06.09.2012 14:04 21,7 C 42 % 1026,7 hPa 0,0 l/m 10,3 km/h (2 Bft) NW 315 0 min 8,2 C 20,4 C
06.09.2012 14:09 21,6 C 37 % 1026,7 hPa 0,0 l/m 18,0 km/h (3 Bft) NW 325 0 min 6,3 C 18,6 C
06.09.2012 14:14 21,6 C 40 % 1026,7 hPa 0,0 l/m 4,2 km/h (1 Bft) W-NW 290 0 min 7,4 C 21,6 C
06.09.2012 14:19 21,6 C 40 % 1026,7 hPa 0,0 l/m 2,2 km/h (1 Bft) NW 315 0 min 7,4 C 21,6 C
06.09.2012 14:24 20,8 C 40 % 1026,7 hPa 0,0 l/m 1,5 km/h (1 Bft) NW 305 0 min 6,7 C 20,8 C
06.09.2012 14:29 20,5 C 39 % 1026,7 hPa 0,0 l/m 13,5 km/h (3 Bft) W-NW 285 0 min 6,1 C 18,2 C
06.09.2012 14:34 19,4 C 40 % 1026,7 hPa 0,0 l/m 14,0 km/h (3 Bft) N-NW 330 0 min 5,5 C 16,8 C
06.09.2012 14:39 19,7 C 41 % 1026,7 hPa 0,0 l/m 11,3 km/h (2 Bft) NW 310 0 min 6,1 C 17,9 C
06.09.2012 14:44 20,2 C 40 % 1026,7 hPa 0,0 l/m 9,9 km/h (2 Bft) W-NW 295 0 min 6,2 C 18,9 C
06.09.2012 14:49 20,3 C 40 % 1026,7 hPa 0,0 l/m 5,8 km/h (2 Bft) W 280 0 min 6,3 C 20,3 C
06.09.2012 14:54 20,2 C 40 % 1026,7 hPa 0,0 l/m 11,3 km/h (2 Bft) NW 325 0 min 6,2 C 18,5 C
06.09.2012 14:59 19,9 C 41 % 1026,7 hPa 0,0 l/m 9,4 km/h (2 Bft) N-NW 335 0 min 6,3 C 18,7 C
06.09.2012 15:04 20,2 C 41 % 1026,7 hPa 0,0 l/m 0,3 km/h (0 Bft) W-NW 290 0 min 6,5 C 20,2 C
06.09.2012 15:09 20,4 C 40 % 1026,7 hPa 0,0 l/m 11,6 km/h (2 Bft) NW 325 0 min 6,3 C 18,6 C
06.09.2012 15:14 20,2 C 40 % 1026,7 hPa 0,0 l/m 11,3 km/h (2 Bft) N-NW 340 0 min 6,2 C 18,5 C
06.09.2012 15:19 20,2 C 40 % 1025,7 hPa 0,0 l/m 11,7 km/h (2 Bft) N-NW 330 0 min 6,2 C 18,3 C
06.09.2012 15:24 20,3 C 40 % 1025,7 hPa 0,0 l/m 9,2 km/h (2 Bft) W-NW 285 0 min 6,3 C 19,2 C
06.09.2012 15:29 20,4 C 39 % 1025,7 hPa 0,0 l/m 15,6 km/h (3 Bft) NW 325 0 min 6,0 C 17,6 C
06.09.2012 15:34 20,9 C 40 % 1025,7 hPa 0,0 l/m 0,2 km/h (0 Bft) W 280 0 min 6,8 C 20,9 C
06.09.2012 15:39 20,9 C 39 % 1025,7 hPa 0,0 l/m 8,5 km/h (2 Bft) W 275 0 min 6,4 C 20,1 C
06.09.2012 15:44 21,0 C 39 % 1025,7 hPa 0,0 l/m 0,6 km/h (0 Bft) W-SW 245 0 min 6,5 C 21,0 C
06.09.2012 15:49 20,6 C 39 % 1025,7 hPa 0,0 l/m 14,0 km/h (3 Bft) NW 320 0 min 6,2 C 18,2 C
06.09.2012 15:54 20,7 C 39 % 1025,7 hPa 0,0 l/m 12,4 km/h (3 Bft) NW 305 0 min 6,2 C 18,7 C
06.09.2012 15:59 20,7 C 39 % 1025,7 hPa 0,0 l/m 3,4 km/h (1 Bft) W-NW 285 0 min 6,2 C 20,7 C
06.09.2012 16:04 20,7 C 40 % 1025,7 hPa 0,0 l/m 12,1 km/h (2 Bft) N-NW 335 0 min 6,6 C 18,8 C
06.09.2012 16:09 20,7 C 39 % 1025,7 hPa 0,0 l/m 3,1 km/h (1 Bft) NW 325 0 min 6,2 C 20,7 C
06.09.2012 16:14 20,8 C 40 % 1025,7 hPa 0,0 l/m 13,3 km/h (3 Bft) N-NW 330 0 min 6,7 C 18,6 C
06.09.2012 16:19 21,3 C 39 % 1025,7 hPa 0,0 l/m 0,1 km/h (0 Bft) W-SW 255 0 min 6,8 C 21,3 C
06.09.2012 16:24 21,5 C 39 % 1025,7 hPa 0,0 l/m 0,9 km/h (0 Bft) W-NW 295 0 min 7,0 C 21,5 C
06.09.2012 16:29 21,6 C 39 % 1025,7 hPa 0,0 l/m 0,2 km/h (0 Bft) NW 315 0 min 7,0 C 21,6 C
06.09.2012 16:34 21,7 C 39 % 1025,7 hPa 0,0 l/m 0,2 km/h (0 Bft) S 185 0 min 7,1 C 21,7 C
06.09.2012 16:39 21,8 C 39 % 1025,7 hPa 0,0 l/m 0,0 km/h (0 Bft) SO 135 0 min 7,2 C 21,8 C
06.09.2012 16:44 21,9 C 38 % 1025,7 hPa 0,0 l/m 0,1 km/h (0 Bft) NW 325 0 min 6,9 C 21,9 C
06.09.2012 16:49 21,6 C 37 % 1025,7 hPa 0,0 l/m 0,0 km/h (0 Bft) W-NW 300 0 min 6,3 C 21,6 C
06.09.2012 16:54 21,9 C 38 % 1025,7 hPa 0,0 l/m 0,0 km/h (0 Bft) W-NW 295 0 min 6,9 C 21,9 C
06.09.2012 16:59 22,0 C 37 % 1025,7 hPa 0,0 l/m 0,0 km/h (0 Bft) W-NW 295 0 min 6,6 C 22,0 C
06.09.2012 17:04 22,0 C 37 % 1025,7 hPa 0,0 l/m 0,7 km/h (0 Bft) N-NW 330 0 min 6,6 C 22,0 C
06.09.2012 17:09 21,7 C 37 % 1025,7 hPa 0,0 l/m 10,0 km/h (2 Bft) NW 305 0 min 6,4 C 20,5 C
06.09.2012 17:14 21,9 C 37 % 1025,7 hPa 0,0 l/m 11,6 km/h (2 Bft) W-NW 300 0 min 6,5 C 20,3 C
06.09.2012 17:18 21,9 C 37 % 1025,7 hPa 0,0 l/m 5,3 km/h (1 Bft) NW 305 0 min 6,5 C 21,9 C
06.09.2012 17:23 21,3 C 36 % 1025,7 hPa 0,0 l/m 12,0 km/h (2 Bft) NW 310 0 min 5,6 C 19,5 C
06.09.2012 17:28 20,7 C 38 % 1025,7 hPa 0,0 l/m 12,6 km/h (3 Bft) N-NW 345 0 min 5,9 C 18,7 C
06.09.2012 17:34 20,5 C 38 % 1025,7 hPa 0,0 l/m 9,6 km/h (2 Bft) NW 325 0 min 5,7 C 19,3 C
06.09.2012 17:39 20,8 C 39 % 1025,7 hPa 0,0 l/m 1,0 km/h (0 Bft) W-SW 250 0 min 6,3 C 20,8 C
06.09.2012 17:44 20,8 C 40 % 1025,7 hPa 0,0 l/m 0,0 km/h (0 Bft) W 270 0 min 6,7 C 20,8 C
06.09.2012 17:49 21,1 C 39 % 1025,7 hPa 0,0 l/m 0,0 km/h (0 Bft) NW 305 0 min 6,6 C 21,1 C
06.09.2012 17:54 21,3 C 39 % 1025,7 hPa 0,0 l/m 0,0 km/h (0 Bft) W-NW 290 0 min 6,8 C 21,3 C
06.09.2012 17:59 20,6 C 38 % 1025,7 hPa 0,0 l/m 12,5 km/h (3 Bft) N-NW 330 0 min 5,8 C 18,6 C
06.09.2012 18:04 20,2 C 38 % 1025,7 hPa 0,0 l/m 9,8 km/h (2 Bft) N-NW 345 0 min 5,4 C 18,9 C
06.09.2012 18:09 20,0 C 40 % 1025,7 hPa 0,0 l/m 1,3 km/h (1 Bft) NW 310 0 min 6,0 C 20,0 C
06.09.2012 18:14 19,9 C 40 % 1025,7 hPa 0,0 l/m 10,0 km/h (2 Bft) N-NW 340 0 min 5,9 C 18,5 C
06.09.2012 18:19 19,7 C 40 % 1025,7 hPa 0,0 l/m 9,1 km/h (2 Bft) N-NW 335 0 min 5,7 C 18,6 C
06.09.2012 18:24 19,6 C 40 % 1025,7 hPa 0,0 l/m 1,5 km/h (1 Bft) N-NW 330 0 min 5,6 C 19,6 C
06.09.2012 18:29 19,3 C 41 % 1025,7 hPa 0,0 l/m 6,8 km/h (2 Bft) W-NW 295 0 min 5,7 C 19,1 C
06.09.2012 18:34 19,2 C 41 % 1024,7 hPa 0,0 l/m 0,0 km/h (0 Bft) N-NW 330 0 min 5,6 C 19,2 C
06.09.2012 18:39 19,2 C 41 % 1024,7 hPa 0,0 l/m 4,4 km/h (1 Bft) W-NW 295 0 min 5,6 C 19,2 C
06.09.2012 18:44 19,1 C 41 % 1024,7 hPa 0,0 l/m 6,7 km/h (2 Bft) W-NW 285 0 min 5,5 C 19,0 C
06.09.2012 18:49 19,0 C 41 % 1024,7 hPa 0,0 l/m 4,7 km/h (1 Bft) W 280 0 min 5,4 C 19,0 C
06.09.2012 18:54 18,9 C 42 % 1024,7 hPa 0,0 l/m 0,0 km/h (0 Bft) W 260 0 min 5,7 C 18,9 C
06.09.2012 18:59 18,7 C 42 % 1024,7 hPa 0,0 l/m 5,6 km/h (1 Bft) W-NW 300 0 min 5,5 C 18,7 C
06.09.2012 19:04 18,6 C 42 % 1024,7 hPa 0,0 l/m 6,0 km/h (2 Bft) NW 305 0 min 5,4 C 18,6 C
06.09.2012 19:09 18,0 C 43 % 1024,7 hPa 0,0 l/m 5,9 km/h (2 Bft) N-NW 330 0 min 5,2 C 18,0 C
06.09.2012 19:14 17,9 C 44 % 1024,7 hPa 0,0 l/m 6,7 km/h (2 Bft) N-NW 330 0 min 5,5 C 17,8 C
06.09.2012 19:19 17,8 C 45 % 1024,7 hPa 0,0 l/m 7,0 km/h (2 Bft) NW 325 0 min 5,7 C 17,5 C
06.09.2012 19:24 17,5 C 45 % 1024,7 hPa 0,0 l/m 5,5 km/h (1 Bft) NW 315 0 min 5,4 C 17,5 C
06.09.2012 19:29 17,3 C 45 % 1025,7 hPa 0,0 l/m 4,6 km/h (1 Bft) W-NW 300 0 min 5,3 C 17,3 C
06.09.2012 19:34 16,9 C 45 % 1025,7 hPa 0,0 l/m 4,2 km/h (1 Bft) W 280 0 min 4,9 C 16,9 C
06.09.2012 19:39 16,5 C 46 % 1024,7 hPa 0,0 l/m 0,0 km/h (0 Bft) W 275 0 min 4,8 C 16,5 C
06.09.2012 19:44 16,3 C 46 % 1025,7 hPa 0,0 l/m 0,0 km/h (0 Bft) W 275 0 min 4,7 C 16,3 C
06.09.2012 19:49 15,9 C 47 % 1025,7 hPa 0,0 l/m 0,0 km/h (0 Bft) W 280 0 min 4,6 C 15,9 C
06.09.2012 19:54 15,5 C 47 % 1025,7 hPa 0,0 l/m 0,1 km/h (0 Bft) W-NW 295 0 min 4,2 C 15,5 C
06.09.2012 19:59 15,1 C 47 % 1025,7 hPa 0,0 l/m 0,0 km/h (0 Bft) W-NW 285 0 min 3,9 C 15,1 C
06.09.2012 20:04 14,9 C 48 % 1025,7 hPa 0,0 l/m 0,0 km/h (0 Bft) W 280 0 min 4,0 C 14,9 C
06.09.2012 20:09 14,5 C 48 % 1025,7 hPa 0,0 l/m 0,0 km/h (0 Bft) W 275 0 min 3,6 C 14,5 C
06.09.2012 20:14 14,2 C 49 % 1025,7 hPa 0,0 l/m 0,0 km/h (0 Bft) W-NW 290 0 min 3,6 C 14,2 C
06.09.2012 20:19 14,1 C 49 % 1025,7 hPa 0,0 l/m 0,0 km/h (0 Bft) W 280 0 min 3,6 C 14,1 C
06.09.2012 20:24 13,8 C 50 % 1025,7 hPa 0,0 l/m 0,0 km/h (0 Bft) W 275 0 min 3,6 C 13,8 C
06.09.2012 20:29 13,4 C 50 % 1025,7 hPa 0,0 l/m 0,0 km/h (0 Bft) W 275 0 min 3,2 C 13,4 C
06.09.2012 20:34 13,3 C 50 % 1025,7 hPa 0,0 l/m 0,0 km/h (0 Bft) W 275 0 min 3,1 C 13,3 C
06.09.2012 20:39 13,1 C 50 % 1025,7 hPa 0,0 l/m 0,0 km/h (0 Bft) W 275 0 min 2,9 C 13,1 C
06.09.2012 20:44 12,8 C 52 % 1024,7 hPa 0,0 l/m 0,0 km/h (0 Bft) W 275 0 min 3,2 C 12,8 C
06.09.2012 20:49 12,7 C 52 % 1024,7 hPa 0,0 l/m 0,0 km/h (0 Bft) W 275 0 min 3,1 C 12,7 C
06.09.2012 20:54 12,5 C 52 % 1025,7 hPa 0,0 l/m 0,0 km/h (0 Bft) W 275 0 min 2,9 C 12,5 C
06.09.2012 20:59 12,4 C 52 % 1024,7 hPa 0,0 l/m 0,0 km/h (0 Bft) W 275 0 min 2,8 C 12,4 C
06.09.2012 21:04 12,0 C 53 % 1024,7 hPa 0,0 l/m 0,0 km/h (0 Bft) W 275 0 min 2,7 C 12,0 C
06.09.2012 21:09 11,9 C 54 % 1025,7 hPa 0,0 l/m 0,0 km/h (0 Bft) W 275 0 min 2,9 C 11,9 C
06.09.2012 21:14 11,8 C 54 % 1025,7 hPa 0,0 l/m 0,0 km/h (0 Bft) W 275 0 min 2,8 C 11,8 C
06.09.2012 21:19 11,5 C 54 % 1025,7 hPa 0,0 l/m 0,0 km/h (0 Bft) W 275 0 min 2,5 C 11,5 C
06.09.2012 21:24 11,5 C 54 % 1025,7 hPa 0,0 l/m 0,0 km/h (0 Bft) W 275 0 min 2,5 C 11,5 C
06.09.2012 21:29 11,3 C 55 % 1025,7 hPa 0,0 l/m 0,0 km/h (0 Bft) W 275 0 min 2,6 C 11,3 C
06.09.2012 21:34 11,1 C 55 % 1025,7 hPa 0,0 l/m 0,0 km/h (0 Bft) W 275 0 min 2,4 C 11,1 C
06.09.2012 21:39 11,1 C 55 % 1025,7 hPa 0,0 l/m 0,0 km/h (0 Bft) W 275 0 min 2,4 C 11,1 C
06.09.2012 21:44 11,0 C 56 % 1025,7 hPa 0,0 l/m 0,0 km/h (0 Bft) W 275 0 min 2,6 C 11,0 C
06.09.2012 21:49 10,8 C 57 % 1025,7 hPa 0,0 l/m 0,0 km/h (0 Bft) W 275 0 min 2,6 C 10,8 C
06.09.2012 21:54 10,7 C 57 % 1025,7 hPa 0,0 l/m 0,0 km/h (0 Bft) W 275 0 min 2,5 C 10,7 C
06.09.2012 21:59 10,5 C 57 % 1025,7 hPa 0,0 l/m 0,0 km/h (0 Bft) W 275 0 min 2,3 C 10,5 C
06.09.2012 22:04 10,4 C 57 % 1025,7 hPa 0,0 l/m 0,0 km/h (0 Bft) W 275 0 min 2,3 C 10,4 C
06.09.2012 22:09 10,3 C 58 % 1025,7 hPa 0,0 l/m 0,0 km/h (0 Bft) W 275 0 min 2,4 C 10,3 C
06.09.2012 22:14 10,3 C 58 % 1025,7 hPa 0,0 l/m 0,0 km/h (0 Bft) W 275 0 min 2,4 C 10,3 C
06.09.2012 22:19 10,2 C 58 % 1025,7 hPa 0,0 l/m 0,0 km/h (0 Bft) W 275 0 min 2,3 C 10,2 C
06.09.2012 22:24 10,0 C 58 % 1025,7 hPa 0,0 l/m 0,0 km/h (0 Bft) W 275 0 min 2,1 C 10,0 C
06.09.2012 22:29 9,9 C 59 % 1025,7 hPa 0,0 l/m 0,0 km/h (0 Bft) W 275 0 min 2,3 C 9,9 C
06.09.2012 22:34 9,8 C 59 % 1025,7 hPa 0,0 l/m 0,0 km/h (0 Bft) W 275 0 min 2,2 C 9,8 C
06.09.2012 22:39 9,7 C 59 % 1025,7 hPa 0,0 l/m 0,0 km/h (0 Bft) W 275 0 min 2,1 C 9,7 C
06.09.2012 22:44 9,6 C 59 % 1025,7 hPa 0,0 l/m 0,0 km/h (0 Bft) W 275 0 min 2,0 C 9,6 C
06.09.2012 22:49 9,4 C 60 % 1025,7 hPa 0,0 l/m 0,0 km/h (0 Bft) W 275 0 min 2,0 C 9,4 C
06.09.2012 22:54 9,2 C 60 % 1024,7 hPa 0,0 l/m 0,0 km/h (0 Bft) W 275 0 min 1,8 C 9,2 C
06.09.2012 22:59 9,2 C 60 % 1024,7 hPa 0,0 l/m 0,0 km/h (0 Bft) W 275 0 min 1,8 C 9,2 C
06.09.2012 23:04 9,1 C 60 % 1024,7 hPa 0,0 l/m 0,0 km/h (0 Bft) W 275 0 min 1,8 C 9,1 C
06.09.2012 23:09 9,1 C 61 % 1024,7 hPa 0,0 l/m 0,0 km/h (0 Bft) W 275 0 min 2,0 C 9,1 C
06.09.2012 23:14 9,0 C 61 % 1024,7 hPa 0,0 l/m 0,0 km/h (0 Bft) W 275 0 min 1,9 C 9,0 C
06.09.2012 23:19 9,0 C 61 % 1024,7 hPa 0,0 l/m 0,0 km/h (0 Bft) W 275 0 min 1,9 C 9,0 C
06.09.2012 23:24 8,8 C 62 % 1025,7 hPa 0,0 l/m 0,0 km/h (0 Bft) W 275 0 min 1,9 C 8,8 C
06.09.2012 23:29 8,8 C 62 % 1025,7 hPa 0,0 l/m 0,0 km/h (0 Bft) W 275 0 min 1,9 C 8,8 C
06.09.2012 23:34 8,7 C 62 % 1025,7 hPa 0,0 l/m 0,0 km/h (0 Bft) W 275 0 min 1,8 C 8,7 C
06.09.2012 23:39 8,6 C 62 % 1025,7 hPa 0,0 l/m 0,0 km/h (0 Bft) W 275 0 min 1,7 C 8,6 C
06.09.2012 23:44 8,5 C 62 % 1025,7 hPa 0,0 l/m 0,0 km/h (0 Bft) W 275 0 min 1,6 C 8,5 C
06.09.2012 23:49 8,4 C 62 % 1025,7 hPa 0,0 l/m 0,0 km/h (0 Bft) W 275 0 min 1,6 C 8,4 C
06.09.2012 23:54 8,4 C 62 % 1024,7 hPa 0,0 l/m 0,0 km/h (0 Bft) W 275 0 min 1,6 C 8,4 C
06.09.2012 23:59 8,3 C 63 % 1024,7 hPa 0,0 l/m 0,0 km/h (0 Bft) W 275 0 min 1,7 C 8,3 C
_ Min-Zeit 00:04 17:23 00:04 - 00:04 - - - 23:49 23:59
Minimum _ 0,0 C 36 % 1023,7 hPa - 0,0 km/h (0 Bft) - - - 1,6 C 8,3 C
_ Max-Zeit 16:59 06:49 10:19 00:04 13:54 - - 00:04 09:39 16:59
Maximum _ 22,0 C 76 % 1027,7 hPa 0,0 l/m 19,1 km/h
S-SO (3 Bft)
- - 0 min 9,7 C 22,0 C
Durchschnitt _ 14,4 C 58 % 1025,9 hPa #0,0 l/m 1,9 km/h (1 Bft) NW - #0 min. 5,8 C 14,2 C